sensor_id;sensor_type;location;lat;lon;timestamp;temperature;humidity
43679;DHT22;29279;50.858;4.392;2022-08-21T00:00:24;19.90;95.80
43679;DHT22;29279;50.858;4.392;2022-08-21T00:02:51;19.90;95.70
43679;DHT22;29279;50.858;4.392;2022-08-21T00:05:18;19.70;96.20
43679;DHT22;29279;50.858;4.392;2022-08-21T00:07:43;19.70;96.50
43679;DHT22;29279;50.858;4.392;2022-08-21T00:10:09;19.60;96.80
43679;DHT22;29279;50.858;4.392;2022-08-21T00:12:35;19.50;97.20
43679;DHT22;29279;50.858;4.392;2022-08-21T00:15:01;19.30;97.80
43679;DHT22;29279;50.858;4.392;2022-08-21T00:17:26;19.30;98.20
43679;DHT22;29279;50.858;4.392;2022-08-21T00:19:52;19.30;98.40
43679;DHT22;29279;50.858;4.392;2022-08-21T00:22:17;19.10;99.00
43679;DHT22;29279;50.858;4.392;2022-08-21T00:24:43;19.10;99.10
43679;DHT22;29279;50.858;4.392;2022-08-21T00:27:09;19.00;99.40
43679;DHT22;29279;50.858;4.392;2022-08-21T00:29:34;19.00;99.80
43679;DHT22;29279;50.858;4.392;2022-08-21T00:32:00;18.90;99.90
43679;DHT22;29279;50.858;4.392;2022-08-21T00:34:25;18.90;99.90
43679;DHT22;29279;50.858;4.392;2022-08-21T00:36:51;19.00;99.90
43679;DHT22;29279;50.858;4.392;2022-08-21T00:39:17;18.80;99.90
43679;DHT22;29279;50.858;4.392;2022-08-21T00:41:42;18.70;99.90
43679;DHT22;29279;50.858;4.392;2022-08-21T00:44:09;18.70;99.90
43679;DHT22;29279;50.858;4.392;2022-08-21T00:46:35;18.70;99.90
43679;DHT22;29279;50.858;4.392;2022-08-21T00:49:01;18.80;99.90
43679;DHT22;29279;50.858;4.392;2022-08-21T00:51:29;18.80;99.90
43679;DHT22;29279;50.858;4.392;2022-08-21T00:53:59;18.80;99.90
43679;DHT22;29279;50.858;4.392;2022-08-21T00:56:26;18.70;99.90
43679;DHT22;29279;50.858;4.392;2022-08-21T00:58:52;18.70;99.90
43679;DHT22;29279;50.858;4.392;2022-08-21T01:01:19;18.80;99.90
43679;DHT22;29279;50.858;4.392;2022-08-21T01:03:45;18.70;99.90
43679;DHT22;29279;50.858;4.392;2022-08-21T01:06:11;18.70;99.90
43679;DHT22;29279;50.858;4.392;2022-08-21T01:08:37;18.60;99.90
43679;DHT22;29279;50.858;4.392;2022-08-21T01:11:03;18.60;99.90
43679;DHT22;29279;50.858;4.392;2022-08-21T01:13:31;18.70;99.90
43679;DHT22;29279;50.858;4.392;2022-08-21T01:15:58;18.70;99.90
43679;DHT22;29279;50.858;4.392;2022-08-21T01:18:25;18.60;99.90
43679;DHT22;29279;50.858;4.392;2022-08-21T01:21:10;18.60;99.90
43679;DHT22;29279;50.858;4.392;2022-08-21T01:23:37;18.50;99.90
43679;DHT22;29279;50.858;4.392;2022-08-21T01:26:04;18.60;99.90
43679;DHT22;29279;50.858;4.392;2022-08-21T01:28:30;18.60;99.90
43679;DHT22;29279;50.858;4.392;2022-08-21T01:30:58;18.60;99.90
43679;DHT22;29279;50.858;4.392;2022-08-21T01:33:24;18.70;99.90
43679;DHT22;29279;50.858;4.392;2022-08-21T01:35:50;18.70;99.90
43679;DHT22;29279;50.858;4.392;2022-08-21T01:38:16;18.60;99.90
43679;DHT22;29279;50.858;4.392;2022-08-21T01:40:41;18.60;99.90
43679;DHT22;29279;50.858;4.392;2022-08-21T01:43:07;18.60;99.90
43679;DHT22;29279;50.858;4.392;2022-08-21T01:45:32;18.60;99.90
43679;DHT22;29279;50.858;4.392;2022-08-21T01:47:58;18.50;99.90
43679;DHT22;29279;50.858;4.392;2022-08-21T01:50:23;18.30;99.90
43679;DHT22;29279;50.858;4.392;2022-08-21T01:52:49;18.40;99.90
43679;DHT22;29279;50.858;4.392;2022-08-21T01:55:15;18.40;99.90
43679;DHT22;29279;50.858;4.392;2022-08-21T01:57:41;18.40;99.90
43679;DHT22;29279;50.858;4.392;2022-08-21T02:00:08;18.40;99.90
43679;DHT22;29279;50.858;4.392;2022-08-21T02:02:35;18.30;99.90
43679;DHT22;29279;50.858;4.392;2022-08-21T02:05:00;18.40;99.90
43679;DHT22;29279;50.858;4.392;2022-08-21T02:07:26;18.30;99.90
43679;DHT22;29279;50.858;4.392;2022-08-21T02:09:51;18.40;99.90
43679;DHT22;29279;50.858;4.392;2022-08-21T02:12:17;18.30;99.90
43679;DHT22;29279;50.858;4.392;2022-08-21T02:14:42;18.30;99.90
43679;DHT22;29279;50.858;4.392;2022-08-21T02:17:08;18.30;99.90
43679;DHT22;29279;50.858;4.392;2022-08-21T02:19:33;18.40;99.90
43679;DHT22;29279;50.858;4.392;2022-08-21T02:21:59;18.50;99.90
43679;DHT22;29279;50.858;4.392;2022-08-21T02:24:25;18.50;99.90
43679;DHT22;29279;50.858;4.392;2022-08-21T02:26:50;18.50;99.90
43679;DHT22;29279;50.858;4.392;2022-08-21T02:29:16;18.40;99.90
43679;DHT22;29279;50.858;4.392;2022-08-21T02:31:41;18.40;99.90
43679;DHT22;29279;50.858;4.392;2022-08-21T02:34:07;18.30;99.90
43679;DHT22;29279;50.858;4.392;2022-08-21T02:36:34;18.40;99.90
43679;DHT22;29279;50.858;4.392;2022-08-21T02:38:59;18.40;99.90
43679;DHT22;29279;50.858;4.392;2022-08-21T02:41:25;18.20;99.90
43679;DHT22;29279;50.858;4.392;2022-08-21T02:43:50;18.20;99.90
43679;DHT22;29279;50.858;4.392;2022-08-21T02:46:18;18.10;99.90
43679;DHT22;29279;50.858;4.392;2022-08-21T02:48:44;18.00;99.90
43679;DHT22;29279;50.858;4.392;2022-08-21T02:51:14;18.00;99.90
43679;DHT22;29279;50.858;4.392;2022-08-21T02:53:41;18.10;99.90
43679;DHT22;29279;50.858;4.392;2022-08-21T02:56:08;18.10;99.90
43679;DHT22;29279;50.858;4.392;2022-08-21T02:58:35;18.20;99.90
43679;DHT22;29279;50.858;4.392;2022-08-21T03:01:01;18.30;99.90
43679;DHT22;29279;50.858;4.392;2022-08-21T03:03:27;18.30;99.90
43679;DHT22;29279;50.858;4.392;2022-08-21T03:05:52;18.20;99.90
43679;DHT22;29279;50.858;4.392;2022-08-21T03:08:19;18.20;99.90
43679;DHT22;29279;50.858;4.392;2022-08-21T03:10:46;18.10;99.90
43679;DHT22;29279;50.858;4.392;2022-08-21T03:13:12;18.10;99.90
43679;DHT22;29279;50.858;4.392;2022-08-21T03:15:38;18.00;99.90
43679;DHT22;29279;50.858;4.392;2022-08-21T03:18:04;18.00;99.90
43679;DHT22;29279;50.858;4.392;2022-08-21T03:20:30;18.00;99.90
43679;DHT22;29279;50.858;4.392;2022-08-21T03:22:57;17.90;99.90
43679;DHT22;29279;50.858;4.392;2022-08-21T03:25:24;17.70;99.90
43679;DHT22;29279;50.858;4.392;2022-08-21T03:27:49;17.70;99.90
43679;DHT22;29279;50.858;4.392;2022-08-21T03:30:15;17.60;99.90
43679;DHT22;29279;50.858;4.392;2022-08-21T03:32:41;17.60;99.90
43679;DHT22;29279;50.858;4.392;2022-08-21T03:35:07;17.60;99.90
43679;DHT22;29279;50.858;4.392;2022-08-21T03:37:32;17.50;99.90
43679;DHT22;29279;50.858;4.392;2022-08-21T03:39:58;17.60;99.90
43679;DHT22;29279;50.858;4.392;2022-08-21T03:42:23;17.80;99.90
43679;DHT22;29279;50.858;4.392;2022-08-21T03:44:49;17.80;99.90
43679;DHT22;29279;50.858;4.392;2022-08-21T03:47:15;17.80;99.90
43679;DHT22;29279;50.858;4.392;2022-08-21T03:49:40;17.90;99.90
43679;DHT22;29279;50.858;4.392;2022-08-21T03:52:06;17.90;99.90
43679;DHT22;29279;50.858;4.392;2022-08-21T03:54:32;17.80;99.90
43679;DHT22;29279;50.858;4.392;2022-08-21T03:56:58;17.90;99.90
43679;DHT22;29279;50.858;4.392;2022-08-21T03:59:24;17.90;99.90
43679;DHT22;29279;50.858;4.392;2022-08-21T04:04:18;18.00;99.90
43679;DHT22;29279;50.858;4.392;2022-08-21T04:06:43;18.00;99.90
43679;DHT22;29279;50.858;4.392;2022-08-21T04:09:09;18.10;99.90
43679;DHT22;29279;50.858;4.392;2022-08-21T04:11:34;18.10;99.90
43679;DHT22;29279;50.858;4.392;2022-08-21T04:14:00;18.10;99.90
43679;DHT22;29279;50.858;4.392;2022-08-21T04:16:26;18.10;99.90
43679;DHT22;29279;50.858;4.392;2022-08-21T04:18:52;18.00;99.90
43679;DHT22;29279;50.858;4.392;2022-08-21T04:21:17;17.90;99.90
43679;DHT22;29279;50.858;4.392;2022-08-21T04:23:43;17.90;99.90
43679;DHT22;29279;50.858;4.392;2022-08-21T04:26:08;18.00;99.90
43679;DHT22;29279;50.858;4.392;2022-08-21T04:28:34;18.00;99.90
43679;DHT22;29279;50.858;4.392;2022-08-21T04:30:59;18.10;99.90
43679;DHT22;29279;50.858;4.392;2022-08-21T04:33:25;18.00;99.90
43679;DHT22;29279;50.858;4.392;2022-08-21T04:35:51;17.90;99.90
43679;DHT22;29279;50.858;4.392;2022-08-21T04:38:17;17.80;99.90
43679;DHT22;29279;50.858;4.392;2022-08-21T04:40:42;17.80;99.90
43679;DHT22;29279;50.858;4.392;2022-08-21T04:43:09;17.60;99.90
43679;DHT22;29279;50.858;4.392;2022-08-21T04:45:36;17.40;99.90
43679;DHT22;29279;50.858;4.392;2022-08-21T04:48:03;17.40;99.90
43679;DHT22;29279;50.858;4.392;2022-08-21T04:50:34;17.40;99.90
43679;DHT22;29279;50.858;4.392;2022-08-21T04:53:01;17.30;99.90
43679;DHT22;29279;50.858;4.392;2022-08-21T04:55:27;17.30;99.90
43679;DHT22;29279;50.858;4.392;2022-08-21T04:57:54;17.40;99.90
43679;DHT22;29279;50.858;4.392;2022-08-21T05:00:20;17.40;99.90
43679;DHT22;29279;50.858;4.392;2022-08-21T05:02:47;17.50;99.90
43679;DHT22;29279;50.858;4.392;2022-08-21T05:05:13;17.50;99.90
43679;DHT22;29279;50.858;4.392;2022-08-21T05:07:38;17.60;99.90
43679;DHT22;29279;50.858;4.392;2022-08-21T05:10:05;17.60;99.90
43679;DHT22;29279;50.858;4.392;2022-08-21T05:12:32;17.50;99.90
43679;DHT22;29279;50.858;4.392;2022-08-21T05:14:58;17.30;99.90
43679;DHT22;29279;50.858;4.392;2022-08-21T05:17:24;17.30;99.90
43679;DHT22;29279;50.858;4.392;2022-08-21T05:19:50;17.30;99.90
43679;DHT22;29279;50.858;4.392;2022-08-21T05:22:19;17.20;99.90
43679;DHT22;29279;50.858;4.392;2022-08-21T05:24:45;17.20;99.90
43679;DHT22;29279;50.858;4.392;2022-08-21T05:27:10;17.30;99.90
43679;DHT22;29279;50.858;4.392;2022-08-21T05:29:36;17.40;99.90
43679;DHT22;29279;50.858;4.392;2022-08-21T05:32:03;17.40;99.90
43679;DHT22;29279;50.858;4.392;2022-08-21T05:34:32;17.50;99.90
43679;DHT22;29279;50.858;4.392;2022-08-21T05:36:58;17.60;99.90
43679;DHT22;29279;50.858;4.392;2022-08-21T05:39:23;17.70;99.90
43679;DHT22;29279;50.858;4.392;2022-08-21T05:41:49;17.70;99.90
43679;DHT22;29279;50.858;4.392;2022-08-21T05:44:15;17.70;99.90
43679;DHT22;29279;50.858;4.392;2022-08-21T05:46:40;17.60;99.90
43679;DHT22;29279;50.858;4.392;2022-08-21T05:49:07;17.50;99.90
43679;DHT22;29279;50.858;4.392;2022-08-21T05:51:33;17.40;99.90
43679;DHT22;29279;50.858;4.392;2022-08-21T05:53:58;17.40;99.90
43679;DHT22;29279;50.858;4.392;2022-08-21T05:56:25;17.50;99.90
43679;DHT22;29279;50.858;4.392;2022-08-21T05:58:50;17.40;99.90
43679;DHT22;29279;50.858;4.392;2022-08-21T06:01:16;17.50;99.90
43679;DHT22;29279;50.858;4.392;2022-08-21T06:03:41;17.60;99.90
43679;DHT22;29279;50.858;4.392;2022-08-21T06:06:08;17.60;99.90
43679;DHT22;29279;50.858;4.392;2022-08-21T06:08:33;17.60;99.90
43679;DHT22;29279;50.858;4.392;2022-08-21T06:10:59;17.70;99.90
43679;DHT22;29279;50.858;4.392;2022-08-21T06:13:26;17.80;99.90
43679;DHT22;29279;50.858;4.392;2022-08-21T06:16:02;17.80;99.90
43679;DHT22;29279;50.858;4.392;2022-08-21T06:18:28;17.80;99.90
43679;DHT22;29279;50.858;4.392;2022-08-21T06:20:53;17.80;99.90
43679;DHT22;29279;50.858;4.392;2022-08-21T06:23:19;17.80;99.90
43679;DHT22;29279;50.858;4.392;2022-08-21T06:25:44;17.90;99.90
43679;DHT22;29279;50.858;4.392;2022-08-21T06:28:10;17.90;99.90
43679;DHT22;29279;50.858;4.392;2022-08-21T06:30:36;17.90;99.90
43679;DHT22;29279;50.858;4.392;2022-08-21T06:33:02;17.90;99.90
43679;DHT22;29279;50.858;4.392;2022-08-21T06:35:28;17.90;99.90
43679;DHT22;29279;50.858;4.392;2022-08-21T06:37:54;17.90;99.90
43679;DHT22;29279;50.858;4.392;2022-08-21T06:40:20;18.00;99.90
43679;DHT22;29279;50.858;4.392;2022-08-21T06:42:46;18.00;99.90
43679;DHT22;29279;50.858;4.392;2022-08-21T06:45:12;18.00;99.90
43679;DHT22;29279;50.858;4.392;2022-08-21T06:47:38;18.10;99.90
43679;DHT22;29279;50.858;4.392;2022-08-21T06:50:04;18.20;99.90
43679;DHT22;29279;50.858;4.392;2022-08-21T06:52:30;18.30;99.90
43679;DHT22;29279;50.858;4.392;2022-08-21T06:54:55;18.30;99.90
43679;DHT22;29279;50.858;4.392;2022-08-21T06:57:21;18.30;99.90
43679;DHT22;29279;50.858;4.392;2022-08-21T06:59:47;18.50;99.90
43679;DHT22;29279;50.858;4.392;2022-08-21T07:02:12;18.50;99.90
43679;DHT22;29279;50.858;4.392;2022-08-21T07:04:38;18.60;99.90
43679;DHT22;29279;50.858;4.392;2022-08-21T07:07:03;18.60;99.90
43679;DHT22;29279;50.858;4.392;2022-08-21T07:09:29;18.70;99.90
43679;DHT22;29279;50.858;4.392;2022-08-21T07:11:55;18.70;99.90
43679;DHT22;29279;50.858;4.392;2022-08-21T07:14:21;18.70;99.90
43679;DHT22;29279;50.858;4.392;2022-08-21T07:16:47;18.90;99.90
43679;DHT22;29279;50.858;4.392;2022-08-21T07:19:12;19.10;99.90
43679;DHT22;29279;50.858;4.392;2022-08-21T07:21:38;19.20;99.90
43679;DHT22;29279;50.858;4.392;2022-08-21T07:24:03;19.40;99.90
43679;DHT22;29279;50.858;4.392;2022-08-21T07:26:29;19.50;99.90
43679;DHT22;29279;50.858;4.392;2022-08-21T07:28:54;19.80;99.90
43679;DHT22;29279;50.858;4.392;2022-08-21T07:31:21;19.80;99.90
43679;DHT22;29279;50.858;4.392;2022-08-21T07:33:47;19.70;99.90
43679;DHT22;29279;50.858;4.392;2022-08-21T07:36:13;19.60;99.90
43679;DHT22;29279;50.858;4.392;2022-08-21T07:38:39;19.60;99.90
43679;DHT22;29279;50.858;4.392;2022-08-21T07:41:18;19.70;99.90
43679;DHT22;29279;50.858;4.392;2022-08-21T07:43:44;19.70;99.90
43679;DHT22;29279;50.858;4.392;2022-08-21T07:46:10;19.70;99.90
43679;DHT22;29279;50.858;4.392;2022-08-21T07:48:36;19.90;99.90
43679;DHT22;29279;50.858;4.392;2022-08-21T07:51:05;19.90;99.90
43679;DHT22;29279;50.858;4.392;2022-08-21T07:53:31;20.00;99.90
43679;DHT22;29279;50.858;4.392;2022-08-21T07:55:57;20.10;99.90
43679;DHT22;29279;50.858;4.392;2022-08-21T07:58:23;20.20;99.90
43679;DHT22;29279;50.858;4.392;2022-08-21T08:00:50;20.20;99.90
43679;DHT22;29279;50.858;4.392;2022-08-21T08:03:15;20.50;99.90
43679;DHT22;29279;50.858;4.392;2022-08-21T08:05:41;20.70;99.90
43679;DHT22;29279;50.858;4.392;2022-08-21T08:08:07;20.80;99.90
43679;DHT22;29279;50.858;4.392;2022-08-21T08:10:32;21.10;99.90
43679;DHT22;29279;50.858;4.392;2022-08-21T08:12:58;21.10;99.90
43679;DHT22;29279;50.858;4.392;2022-08-21T08:15:24;21.20;99.90
43679;DHT22;29279;50.858;4.392;2022-08-21T08:17:50;21.20;99.90
43679;DHT22;29279;50.858;4.392;2022-08-21T08:20:16;21.20;99.90
43679;DHT22;29279;50.858;4.392;2022-08-21T08:22:44;21.30;99.90
43679;DHT22;29279;50.858;4.392;2022-08-21T08:25:10;21.40;99.90
43679;DHT22;29279;50.858;4.392;2022-08-21T08:27:36;21.50;99.90
43679;DHT22;29279;50.858;4.392;2022-08-21T08:30:03;21.50;99.90
43679;DHT22;29279;50.858;4.392;2022-08-21T08:32:29;21.60;99.90
43679;DHT22;29279;50.858;4.392;2022-08-21T08:34:54;21.70;99.90
43679;DHT22;29279;50.858;4.392;2022-08-21T08:37:20;21.70;99.90
43679;DHT22;29279;50.858;4.392;2022-08-21T08:39:45;21.70;99.90
43679;DHT22;29279;50.858;4.392;2022-08-21T08:42:12;21.70;99.90
43679;DHT22;29279;50.858;4.392;2022-08-21T08:44:42;21.70;99.90
43679;DHT22;29279;50.858;4.392;2022-08-21T08:47:08;21.70;99.90
43679;DHT22;29279;50.858;4.392;2022-08-21T08:49:38;21.90;99.90
43679;DHT22;29279;50.858;4.392;2022-08-21T08:54:44;22.40;99.90
43679;DHT22;29279;50.858;4.392;2022-08-21T08:57:18;22.50;99.90
43679;DHT22;29279;50.858;4.392;2022-08-21T08:59:45;22.50;99.90
43679;DHT22;29279;50.858;4.392;2022-08-21T09:02:12;22.50;99.90
43679;DHT22;29279;50.858;4.392;2022-08-21T09:04:38;22.60;99.90
43679;DHT22;29279;50.858;4.392;2022-08-21T09:14:26;22.70;99.50
43679;DHT22;29279;50.858;4.392;2022-08-21T09:16:59;22.90;99.00
43679;DHT22;29279;50.858;4.392;2022-08-21T09:24:29;23.50;97.60
43679;DHT22;29279;50.858;4.392;2022-08-21T09:29:31;24.10;96.70
43679;DHT22;29279;50.858;4.392;2022-08-21T09:31:58;24.40;96.00
43679;DHT22;29279;50.858;4.392;2022-08-21T09:34:28;24.80;95.80
43679;DHT22;29279;50.858;4.392;2022-08-21T09:36:54;25.30;94.90
43679;DHT22;29279;50.858;4.392;2022-08-21T09:39:27;25.40;93.90
43679;DHT22;29279;50.858;4.392;2022-08-21T09:44:45;25.90;93.10
43679;DHT22;29279;50.858;4.392;2022-08-21T09:47:11;26.50;92.70
43679;DHT22;29279;50.858;4.392;2022-08-21T09:49:41;26.80;91.80
43679;DHT22;29279;50.858;4.392;2022-08-21T09:52:17;26.80;90.70
43679;DHT22;29279;50.858;4.392;2022-08-21T09:54:45;26.50;90.50
43679;DHT22;29279;50.858;4.392;2022-08-21T09:57:12;26.30;90.60
43679;DHT22;29279;50.858;4.392;2022-08-21T10:00:07;26.40;90.70
43679;DHT22;29279;50.858;4.392;2022-08-21T10:02:35;26.40;90.10
43679;DHT22;29279;50.858;4.392;2022-08-21T10:07:26;26.40;90.30
43679;DHT22;29279;50.858;4.392;2022-08-21T10:12:37;26.90;89.30
43679;DHT22;29279;50.858;4.392;2022-08-21T10:15:15;27.10;88.50
43679;DHT22;29279;50.858;4.392;2022-08-21T10:20:12;27.30;87.40
43679;DHT22;29279;50.858;4.392;2022-08-21T10:22:58;28.30;86.20
43679;DHT22;29279;50.858;4.392;2022-08-21T10:25:27;29.70;83.40
43679;DHT22;29279;50.858;4.392;2022-08-21T10:35:28;31.30;75.10
43679;DHT22;29279;50.858;4.392;2022-08-21T10:45:58;28.80;77.70
43679;DHT22;29279;50.858;4.392;2022-08-21T10:48:29;29.00;78.60
43679;DHT22;29279;50.858;4.392;2022-08-21T10:51:00;30.60;76.20
43679;DHT22;29279;50.858;4.392;2022-08-21T11:00:51;30.60;73.80
43679;DHT22;29279;50.858;4.392;2022-08-21T11:05:52;30.10;74.40
43679;DHT22;29279;50.858;4.392;2022-08-21T11:08:19;29.70;75.10
43679;DHT22;29279;50.858;4.392;2022-08-21T11:10:51;29.90;75.80
43679;DHT22;29279;50.858;4.392;2022-08-21T11:13:19;30.90;74.10
43679;DHT22;29279;50.858;4.392;2022-08-21T11:15:50;30.20;73.80
43679;DHT22;29279;50.858;4.392;2022-08-21T11:23:43;30.30;73.70
43679;DHT22;29279;50.858;4.392;2022-08-21T11:26:13;29.80;73.90
43679;DHT22;29279;50.858;4.392;2022-08-21T11:28:47;29.30;74.90
43679;DHT22;29279;50.858;4.392;2022-08-21T11:36:58;28.80;75.20
43679;DHT22;29279;50.858;4.392;2022-08-21T11:39:35;28.90;75.10
43679;DHT22;29279;50.858;4.392;2022-08-21T11:42:06;29.00;74.30
43679;DHT22;29279;50.858;4.392;2022-08-21T11:49:49;29.90;73.60
43679;DHT22;29279;50.858;4.392;2022-08-21T11:52:20;30.50;73.00
43679;DHT22;29279;50.858;4.392;2022-08-21T11:54:50;31.30;71.90
43679;DHT22;29279;50.858;4.392;2022-08-21T11:59:53;31.00;71.00
43679;DHT22;29279;50.858;4.392;2022-08-21T12:02:21;31.20;71.10
43679;DHT22;29279;50.858;4.392;2022-08-21T12:04:49;32.00;70.50
43679;DHT22;29279;50.858;4.392;2022-08-21T12:07:17;33.40;69.10
43679;DHT22;29279;50.858;4.392;2022-08-21T12:09:54;34.90;67.10
43679;DHT22;29279;50.858;4.392;2022-08-21T12:12:24;35.50;65.60
43679;DHT22;29279;50.858;4.392;2022-08-21T12:14:51;36.10;63.70
43679;DHT22;29279;50.858;4.392;2022-08-21T12:17:20;35.90;62.80
43679;DHT22;29279;50.858;4.392;2022-08-21T12:19:56;35.20;63.90
43679;DHT22;29279;50.858;4.392;2022-08-21T12:22:22;35.40;63.00
43679;DHT22;29279;50.858;4.392;2022-08-21T12:24:48;35.90;63.00
43679;DHT22;29279;50.858;4.392;2022-08-21T12:29:48;37.80;60.40
43679;DHT22;29279;50.858;4.392;2022-08-21T12:39:57;37.20;58.80
43679;DHT22;29279;50.858;4.392;2022-08-21T12:42:30;37.20;57.70
43679;DHT22;29279;50.858;4.392;2022-08-21T12:44:58;37.40;57.90
43679;DHT22;29279;50.858;4.392;2022-08-21T12:47:27;35.90;58.20
43679;DHT22;29279;50.858;4.392;2022-08-21T12:50:09;34.10;59.10
43679;DHT22;29279;50.858;4.392;2022-08-21T12:52:40;32.60;61.10
43679;DHT22;29279;50.858;4.392;2022-08-21T12:55:10;31.40;62.40
43679;DHT22;29279;50.858;4.392;2022-08-21T12:57:36;30.70;62.90
43679;DHT22;29279;50.858;4.392;2022-08-21T13:00:05;30.30;63.70
43679;DHT22;29279;50.858;4.392;2022-08-21T13:02:48;30.50;64.50
43679;DHT22;29279;50.858;4.392;2022-08-21T13:05:19;30.60;63.80
43679;DHT22;29279;50.858;4.392;2022-08-21T13:07:48;30.80;63.80
43679;DHT22;29279;50.858;4.392;2022-08-21T13:12:46;30.40;64.00
43679;DHT22;29279;50.858;4.392;2022-08-21T13:15:12;30.20;64.60
43679;DHT22;29279;50.858;4.392;2022-08-21T13:17:39;29.80;64.90
43679;DHT22;29279;50.858;4.392;2022-08-21T13:20:08;29.60;65.50
43679;DHT22;29279;50.858;4.392;2022-08-21T13:22:41;29.60;65.60
43679;DHT22;29279;50.858;4.392;2022-08-21T13:25:14;29.50;66.10
43679;DHT22;29279;50.858;4.392;2022-08-21T13:27:41;29.50;67.10
43679;DHT22;29279;50.858;4.392;2022-08-21T13:30:27;29.50;67.10
43679;DHT22;29279;50.858;4.392;2022-08-21T13:32:55;29.60;66.80
43679;DHT22;29279;50.858;4.392;2022-08-21T13:35:24;29.50;67.00
43679;DHT22;29279;50.858;4.392;2022-08-21T13:37:51;29.60;66.30
43679;DHT22;29279;50.858;4.392;2022-08-21T13:40:23;29.50;66.30
43679;DHT22;29279;50.858;4.392;2022-08-21T13:42:49;29.10;66.60
43679;DHT22;29279;50.858;4.392;2022-08-21T13:45:22;28.90;68.00
43679;DHT22;29279;50.858;4.392;2022-08-21T13:47:48;28.70;67.40
43679;DHT22;29279;50.858;4.392;2022-08-21T13:50:13;29.00;67.70
43679;DHT22;29279;50.858;4.392;2022-08-21T13:52:53;29.80;66.50
43679;DHT22;29279;50.858;4.392;2022-08-21T13:55:19;30.10;66.50
43679;DHT22;29279;50.858;4.392;2022-08-21T13:57:45;30.60;65.40
43679;DHT22;29279;50.858;4.392;2022-08-21T14:02:40;29.80;65.20
43679;DHT22;29279;50.858;4.392;2022-08-21T14:05:07;29.40;65.70
43679;DHT22;29279;50.858;4.392;2022-08-21T14:07:39;29.20;66.20
43679;DHT22;29279;50.858;4.392;2022-08-21T14:10:13;29.00;66.60
43679;DHT22;29279;50.858;4.392;2022-08-21T14:12:43;28.70;66.70
43679;DHT22;29279;50.858;4.392;2022-08-21T14:15:13;28.60;66.90
43679;DHT22;29279;50.858;4.392;2022-08-21T14:17:39;28.90;67.20
43679;DHT22;29279;50.858;4.392;2022-08-21T14:20:07;28.80;67.30
43679;DHT22;29279;50.858;4.392;2022-08-21T14:22:38;28.60;67.60
43679;DHT22;29279;50.858;4.392;2022-08-21T14:25:10;28.50;67.90
43679;DHT22;29279;50.858;4.392;2022-08-21T14:27:38;28.40;67.90
43679;DHT22;29279;50.858;4.392;2022-08-21T14:30:10;28.30;68.40
43679;DHT22;29279;50.858;4.392;2022-08-21T14:32:38;28.00;68.60
43679;DHT22;29279;50.858;4.392;2022-08-21T14:35:04;28.00;69.00
43679;DHT22;29279;50.858;4.392;2022-08-21T14:37:30;28.00;68.90
43679;DHT22;29279;50.858;4.392;2022-08-21T14:39:55;27.90;69.20
43679;DHT22;29279;50.858;4.392;2022-08-21T14:42:21;27.90;69.30
43679;DHT22;29279;50.858;4.392;2022-08-21T14:44:46;28.10;69.40
43679;DHT22;29279;50.858;4.392;2022-08-21T14:47:12;28.70;69.40
43679;DHT22;29279;50.858;4.392;2022-08-21T14:49:38;29.20;68.60
43679;DHT22;29279;50.858;4.392;2022-08-21T14:52:03;29.10;68.60
43679;DHT22;29279;50.858;4.392;2022-08-21T14:54:30;28.70;68.40
43679;DHT22;29279;50.858;4.392;2022-08-21T14:56:56;28.60;68.80
43679;DHT22;29279;50.858;4.392;2022-08-21T14:59:22;28.30;68.60
43679;DHT22;29279;50.858;4.392;2022-08-21T15:01:48;27.80;69.40
43679;DHT22;29279;50.858;4.392;2022-08-21T15:04:14;27.40;69.80
43679;DHT22;29279;50.858;4.392;2022-08-21T15:06:40;27.30;70.30
43679;DHT22;29279;50.858;4.392;2022-08-21T15:09:06;27.20;70.70
43679;DHT22;29279;50.858;4.392;2022-08-21T15:11:32;27.10;70.30
43679;DHT22;29279;50.858;4.392;2022-08-21T15:13:59;27.00;70.60
43679;DHT22;29279;50.858;4.392;2022-08-21T15:16:26;26.70;71.20
43679;DHT22;29279;50.858;4.392;2022-08-21T15:18:52;26.40;71.60
43679;DHT22;29279;50.858;4.392;2022-08-21T15:21:18;26.40;71.90
43679;DHT22;29279;50.858;4.392;2022-08-21T15:23:43;26.30;72.40
43679;DHT22;29279;50.858;4.392;2022-08-21T15:26:09;26.30;72.50
43679;DHT22;29279;50.858;4.392;2022-08-21T15:28:35;26.40;72.30
43679;DHT22;29279;50.858;4.392;2022-08-21T15:31:02;26.60;71.80
43679;DHT22;29279;50.858;4.392;2022-08-21T15:33:27;26.30;72.50
43679;DHT22;29279;50.858;4.392;2022-08-21T15:35:54;26.10;72.20
43679;DHT22;29279;50.858;4.392;2022-08-21T15:38:19;25.90;73.00
43679;DHT22;29279;50.858;4.392;2022-08-21T15:40:45;26.00;72.70
43679;DHT22;29279;50.858;4.392;2022-08-21T15:43:27;26.00;73.20
43679;DHT22;29279;50.858;4.392;2022-08-21T15:45:53;26.00;73.10
43679;DHT22;29279;50.858;4.392;2022-08-21T15:48:19;25.90;73.20
43679;DHT22;29279;50.858;4.392;2022-08-21T15:50:44;26.00;72.70
43679;DHT22;29279;50.858;4.392;2022-08-21T15:53:10;26.10;72.10
43679;DHT22;29279;50.858;4.392;2022-08-21T15:55:36;26.20;72.00
43679;DHT22;29279;50.858;4.392;2022-08-21T15:58:02;26.10;71.80
43679;DHT22;29279;50.858;4.392;2022-08-21T16:00:28;26.10;72.00
43679;DHT22;29279;50.858;4.392;2022-08-21T16:02:57;26.10;72.50
43679;DHT22;29279;50.858;4.392;2022-08-21T16:05:23;26.40;72.70
43679;DHT22;29279;50.858;4.392;2022-08-21T16:07:49;26.50;72.10
43679;DHT22;29279;50.858;4.392;2022-08-21T16:10:16;26.70;71.60
43679;DHT22;29279;50.858;4.392;2022-08-21T16:12:47;26.70;71.40
43679;DHT22;29279;50.858;4.392;2022-08-21T16:15:20;26.80;71.60
43679;DHT22;29279;50.858;4.392;2022-08-21T16:17:47;26.80;71.60
43679;DHT22;29279;50.858;4.392;2022-08-21T16:20:13;26.70;71.50
43679;DHT22;29279;50.858;4.392;2022-08-21T16:22:39;26.60;71.10
43679;DHT22;29279;50.858;4.392;2022-08-21T16:25:05;26.40;71.60
43679;DHT22;29279;50.858;4.392;2022-08-21T16:27:31;26.20;71.60
43679;DHT22;29279;50.858;4.392;2022-08-21T16:29:57;26.20;76.20
43679;DHT22;29279;50.858;4.392;2022-08-21T16:32:22;26.30;76.20
43679;DHT22;29279;50.858;4.392;2022-08-21T16:34:48;26.40;76.40
43679;DHT22;29279;50.858;4.392;2022-08-21T16:37:15;26.60;75.70
43679;DHT22;29279;50.858;4.392;2022-08-21T16:39:40;26.60;70.60
43679;DHT22;29279;50.858;4.392;2022-08-21T16:42:06;26.40;71.00
43679;DHT22;29279;50.858;4.392;2022-08-21T16:44:32;26.30;72.30
43679;DHT22;29279;50.858;4.392;2022-08-21T16:46:59;26.40;72.70
43679;DHT22;29279;50.858;4.392;2022-08-21T16:49:25;26.50;72.50
43679;DHT22;29279;50.858;4.392;2022-08-21T16:51:51;26.50;72.00
43679;DHT22;29279;50.858;4.392;2022-08-21T16:54:17;26.70;70.10
43679;DHT22;29279;50.858;4.392;2022-08-21T16:56:43;26.60;71.70
43679;DHT22;29279;50.858;4.392;2022-08-21T16:59:08;26.80;71.70